createdAt,value
2019-03-22T00:00:34.917Z,13.70
2019-03-22T00:05:40.995Z,13.63
2019-03-22T00:10:47.089Z,12.43
2019-03-22T00:15:53.361Z,14.80
2019-03-22T00:20:59.390Z,10.80
2019-03-22T00:26:05.295Z,7.77
2019-03-22T00:31:11.216Z,5.73
2019-03-22T00:36:17.304Z,6.60
2019-03-22T00:41:23.180Z,8.10
2019-03-22T00:46:29.088Z,6.50
2019-03-22T00:51:35.089Z,8.40
2019-03-22T00:56:41.281Z,6.97
2019-03-22T01:01:47.516Z,5.67
2019-03-22T01:06:53.441Z,5.25
2019-03-22T01:11:59.689Z,3.93
2019-03-22T01:17:05.665Z,4.07
2019-03-22T01:22:11.640Z,3.10
2019-03-22T01:27:17.494Z,2.43
2019-03-22T01:32:24.117Z,2.20
2019-03-22T01:37:30.060Z,1.40
2019-03-22T01:42:36.289Z,1.00
2019-03-22T01:47:42.455Z,0.95
2019-03-22T01:52:48.900Z,0.63
2019-03-22T01:57:54.910Z,0.80
2019-03-22T02:03:00.800Z,1.00
2019-03-22T02:08:06.749Z,1.13
2019-03-22T02:13:15.655Z,1.50
2019-03-22T02:18:21.564Z,1.63
2019-03-22T02:23:27.481Z,2.90
2019-03-22T02:28:33.366Z,3.60
2019-03-22T02:33:39.294Z,4.80
2019-03-22T02:38:45.258Z,4.00
2019-03-22T02:43:54.442Z,3.43
2019-03-22T02:48:58.867Z,2.90
2019-03-22T02:54:04.857Z,2.40
2019-03-22T02:59:10.730Z,2.60
2019-03-22T03:04:16.634Z,2.70
2019-03-22T03:09:22.553Z,3.17
2019-03-22T03:14:28.470Z,3.80
2019-03-22T03:19:34.335Z,4.85
2019-03-22T03:24:40.350Z,4.90
2019-03-22T03:29:46.505Z,5.40
2019-03-22T03:34:52.401Z,6.57
2019-03-22T03:39:58.421Z,6.67
2019-03-22T03:45:04.459Z,6.93
2019-03-22T03:50:10.649Z,7.97
2019-03-22T03:55:16.598Z,7.40
2019-03-22T04:00:22.617Z,7.67
2019-03-22T04:05:28.539Z,7.58
2019-03-22T04:10:34.583Z,6.40
2019-03-22T04:15:40.686Z,6.43
2019-03-22T04:20:46.775Z,6.47
2019-03-22T04:25:52.633Z,7.47
2019-03-22T04:30:58.522Z,7.07
2019-03-22T04:36:04.484Z,7.93
2019-03-22T04:41:10.391Z,7.73
2019-03-22T04:46:17.820Z,7.93
2019-03-22T04:51:24.920Z,7.27
2019-03-22T04:56:33.952Z,7.80
2019-03-22T05:01:41.800Z,7.73
2019-03-22T05:06:49.910Z,7.33
2019-03-22T05:11:57.665Z,7.20
2019-03-22T05:17:04.711Z,6.83
2019-03-22T05:22:13.840Z,6.43
2019-03-22T05:27:21.215Z,6.30
2019-03-22T05:32:27.166Z,5.70
2019-03-22T05:37:33.100Z,5.27
2019-03-22T05:42:39.070Z,5.47
2019-03-22T05:47:44.940Z,5.50
2019-03-22T05:52:52.763Z,5.87
2019-03-22T05:57:58.559Z,5.50
2019-03-22T06:03:04.441Z,5.73
2019-03-22T06:08:10.427Z,5.83
2019-03-22T06:13:16.593Z,5.47
2019-03-22T06:18:22.484Z,5.63
2019-03-22T06:23:28.411Z,5.70
2019-03-22T06:28:34.480Z,5.93
2019-03-22T06:33:40.485Z,5.50
2019-03-22T06:38:46.375Z,5.10
2019-03-22T06:43:52.434Z,4.95
2019-03-22T06:48:58.351Z,4.23
2019-03-22T06:54:04.366Z,4.10
2019-03-22T06:59:10.348Z,3.20
2019-03-22T07:04:16.310Z,2.93
2019-03-22T07:09:22.252Z,2.83
2019-03-22T07:14:28.249Z,3.20
2019-03-22T07:19:34.425Z,2.70
2019-03-22T07:24:40.375Z,2.83
2019-03-22T07:29:46.360Z,3.20
2019-03-22T07:34:52.305Z,3.15
2019-03-22T07:40:00.397Z,3.57
2019-03-22T07:45:06.678Z,4.60
2019-03-22T07:50:12.899Z,4.60
2019-03-22T07:55:18.806Z,4.10
2019-03-22T08:00:30.607Z,4.37
2019-03-22T08:05:32.470Z,4.37
2019-03-22T08:10:38.620Z,4.00
2019-03-22T08:15:44.601Z,3.70
2019-03-22T08:20:50.764Z,3.13
2019-03-22T08:25:58.909Z,3.77
2019-03-22T08:31:05.696Z,3.40
2019-03-22T08:36:14.797Z,3.50
2019-03-22T08:41:19.752Z,3.27
2019-03-22T08:46:26.022Z,3.50
2019-03-22T08:51:32.107Z,3.80
2019-03-22T08:56:38.113Z,3.60
2019-03-22T09:01:44.050Z,3.43
2019-03-22T09:06:50.150Z,3.52
2019-03-22T09:11:56.271Z,3.63
2019-03-22T09:17:02.185Z,3.77
2019-03-22T09:22:08.495Z,3.50
2019-03-22T09:27:14.545Z,3.00
2019-03-22T09:32:20.485Z,3.17
2019-03-22T09:37:26.453Z,4.00
2019-03-22T09:42:32.779Z,4.17
2019-03-22T09:47:38.760Z,4.90
2019-03-22T09:52:44.966Z,5.77
2019-03-22T09:57:51.014Z,4.70
2019-03-22T10:02:57.032Z,6.17
2019-03-22T10:08:03.508Z,5.60
2019-03-22T10:13:09.497Z,6.20
2019-03-22T10:18:15.524Z,5.57
2019-03-22T10:23:22.530Z,4.87
2019-03-22T10:28:28.568Z,5.47
2019-03-22T10:33:34.565Z,7.17
2019-03-22T10:38:40.644Z,6.40
2019-03-22T10:43:46.745Z,7.78
2019-03-22T10:48:52.659Z,7.03
2019-03-22T10:53:58.566Z,7.03
2019-03-22T10:59:04.810Z,8.30
2019-03-22T11:04:10.967Z,9.03
2019-03-22T11:09:17.090Z,9.30
2019-03-22T11:14:23.097Z,8.80
2019-03-22T11:19:29.370Z,8.50
2019-03-22T11:24:35.715Z,8.10
2019-03-22T11:29:41.651Z,8.20
2019-03-22T11:34:47.665Z,8.43
2019-03-22T11:39:54.048Z,7.08
2019-03-22T11:45:00.020Z,8.00
2019-03-22T11:50:09.666Z,9.23
2019-03-22T11:55:15.855Z,8.60
2019-03-22T12:00:22.885Z,9.73
2019-03-22T12:05:28.915Z,9.07
2019-03-22T12:10:35.153Z,8.90
2019-03-22T12:15:41.301Z,8.17
2019-03-22T12:20:47.606Z,7.67
2019-03-22T12:25:53.927Z,9.20
2019-03-22T12:30:59.930Z,9.03
2019-03-22T12:36:06.090Z,7.10
2019-03-22T12:41:12.046Z,9.50
2019-03-22T12:46:18.055Z,10.03
2019-03-22T12:51:24.436Z,9.37
2019-03-22T12:56:30.630Z,8.60
2019-03-22T13:01:37.781Z,9.33
2019-03-22T13:06:43.839Z,10.37
2019-03-22T13:11:51.740Z,10.75
2019-03-22T13:16:57.717Z,11.60
2019-03-22T13:22:03.932Z,12.60
2019-03-22T13:27:09.974Z,10.03
2019-03-22T13:32:15.960Z,9.43
2019-03-22T13:37:21.925Z,9.17
2019-03-22T13:42:27.961Z,9.30
2019-03-22T13:47:33.945Z,9.77
2019-03-22T13:52:40.420Z,8.87
2019-03-22T13:57:46.411Z,8.70
2019-03-22T14:03:02.115Z,9.95
2019-03-22T14:08:00.219Z,10.17
2019-03-22T14:13:07.864Z,9.30
2019-03-22T14:18:13.976Z,9.47
2019-03-22T14:23:20.377Z,10.20
2019-03-22T14:28:26.470Z,11.17
2019-03-22T14:33:32.449Z,8.87
2019-03-22T14:38:39.649Z,10.40
2019-03-22T14:43:45.673Z,9.18
2019-03-22T14:48:51.731Z,9.57
2019-03-22T14:54:00.606Z,8.03
2019-03-22T14:59:06.571Z,7.87
2019-03-22T15:04:12.778Z,6.70
2019-03-22T15:09:18.979Z,5.30
2019-03-22T15:14:37.296Z,6.23
2019-03-22T15:20:02.797Z,6.80
2019-03-22T15:25:28.602Z,8.30
2019-03-22T15:30:43.069Z,6.80
2019-03-22T15:35:59.108Z,7.58
2019-03-22T15:41:07.633Z,7.03
2019-03-22T15:46:13.710Z,7.10
2019-03-22T15:51:19.836Z,4.70
2019-03-22T15:56:25.737Z,7.20
2019-03-22T16:01:34.399Z,7.67
2019-03-22T16:06:40.483Z,8.67
2019-03-22T16:11:46.565Z,8.23
2019-03-22T16:16:54.321Z,6.57
2019-03-22T16:22:00.400Z,6.30
2019-03-22T16:27:06.650Z,6.73
2019-03-22T16:32:12.536Z,7.47
2019-03-22T16:37:18.496Z,7.63
2019-03-22T16:42:24.406Z,7.77
2019-03-22T16:47:30.625Z,6.70
2019-03-22T16:52:36.765Z,7.03
2019-03-22T16:57:43.646Z,6.60
2019-03-22T17:02:49.705Z,6.53
2019-03-22T17:07:55.861Z,6.23
2019-03-22T17:13:01.892Z,7.57
2019-03-22T17:18:08.201Z,7.30
2019-03-22T17:23:16.270Z,7.80
2019-03-22T17:28:24.077Z,6.70
2019-03-22T17:33:30.122Z,7.20
2019-03-22T17:38:36.611Z,7.10
2019-03-22T17:43:42.700Z,6.43
2019-03-22T17:48:48.792Z,6.17
2019-03-22T17:53:54.952Z,4.97
2019-03-22T17:59:00.899Z,5.37
2019-03-22T18:04:07.116Z,5.57
2019-03-22T18:09:13.132Z,5.23
2019-03-22T18:14:19.155Z,5.60
2019-03-22T18:19:25.780Z,5.70
2019-03-22T18:24:31.786Z,6.57
2019-03-22T18:29:38.853Z,6.07
2019-03-22T18:34:44.985Z,6.00
2019-03-22T18:39:51.361Z,7.00
2019-03-22T18:44:57.849Z,6.60
2019-03-22T18:50:06.003Z,6.47
2019-03-22T18:55:12.805Z,6.40
2019-03-22T19:00:19.136Z,7.07
2019-03-22T19:05:25.081Z,6.93
2019-03-22T19:10:31.133Z,6.87
2019-03-22T19:15:40.125Z,6.00
2019-03-22T19:20:48.146Z,6.63
2019-03-22T19:25:57.196Z,6.45
2019-03-22T19:31:03.686Z,5.77
2019-03-22T19:36:09.825Z,6.13
2019-03-22T19:41:16.070Z,6.30
2019-03-22T19:46:22.030Z,6.20
2019-03-22T19:51:27.980Z,6.43
2019-03-22T19:56:34.295Z,6.07
2019-03-22T20:01:40.281Z,5.50
2019-03-22T20:06:46.340Z,6.53
2019-03-22T20:11:52.410Z,6.37
2019-03-22T20:16:58.510Z,7.57
2019-03-22T20:22:04.557Z,6.70
2019-03-22T20:27:10.555Z,6.53
2019-03-22T20:32:16.946Z,6.83
2019-03-22T20:37:22.953Z,5.80
2019-03-22T20:42:29.333Z,6.33
2019-03-22T20:47:35.609Z,6.00
2019-03-22T20:52:41.725Z,5.80
2019-03-22T20:57:47.760Z,5.47
2019-03-22T21:02:54.294Z,4.00
2019-03-22T21:08:00.370Z,4.27
2019-03-22T21:13:06.761Z,4.70
2019-03-22T21:18:13.101Z,4.97
2019-03-22T21:23:19.177Z,4.93
2019-03-22T21:28:26.085Z,5.47
2019-03-22T21:33:32.637Z,4.50
2019-03-22T21:38:38.957Z,4.70
2019-03-22T21:43:45.337Z,4.53
2019-03-22T21:48:51.518Z,4.12
2019-03-22T21:53:57.580Z,3.13
2019-03-22T21:59:03.657Z,2.40
2019-03-22T22:04:09.680Z,2.52
2019-03-22T22:09:15.762Z,3.00
2019-03-22T22:14:21.752Z,2.47
2019-03-22T22:19:27.836Z,3.03
2019-03-22T22:24:33.836Z,2.67
2019-03-22T22:29:39.767Z,2.50
2019-03-22T22:34:46.007Z,4.90
2019-03-22T22:39:52.025Z,6.97
2019-03-22T22:44:58.100Z,25.57
2019-03-22T22:50:04.326Z,7.87
2019-03-22T22:55:10.635Z,4.30
2019-03-22T23:00:17.573Z,2.50
2019-03-22T23:05:23.604Z,1.47
2019-03-22T23:10:29.711Z,1.50
2019-03-22T23:15:35.689Z,0.80
2019-03-22T23:20:42.113Z,2.80
2019-03-22T23:25:48.181Z,8.57
2019-03-22T23:30:54.714Z,1.60
2019-03-22T23:36:00.847Z,4.80
2019-03-22T23:41:07.096Z,4.63
2019-03-22T23:46:13.045Z,6.00
2019-03-22T23:51:19.330Z,2.60
2019-03-22T23:56:25.478Z,5.60
